createdAt,value
2017-03-25T00:00:57.070Z,1032.230
2017-03-25T00:04:01.378Z,1032.223
2017-03-25T00:07:05.384Z,1032.222
2017-03-25T00:10:10.340Z,1032.269
2017-03-25T00:13:14.112Z,1032.285
2017-03-25T00:16:18.773Z,1032.279
2017-03-25T00:22:28.147Z,1032.246
2017-03-25T00:25:32.562Z,1032.259
2017-03-25T00:28:36.677Z,1032.236
2017-03-25T00:31:40.906Z,1032.192
2017-03-25T00:34:44.919Z,1032.171
2017-03-25T00:40:54.405Z,1032.159
2017-03-25T00:43:58.307Z,1032.149
2017-03-25T00:50:07.854Z,1032.038
2017-03-25T00:56:17.295Z,1031.973
2017-03-25T00:59:21.568Z,1032.019
2017-03-25T01:02:25.657Z,1032.077
2017-03-25T01:05:29.750Z,1032.115
2017-03-25T01:08:34.076Z,1032.140
2017-03-25T01:11:38.187Z,1032.116
2017-03-25T01:14:42.536Z,1032.090
2017-03-25T01:17:47.675Z,1032.101
2017-03-25T01:20:51.683Z,1032.149
2017-03-25T01:23:55.516Z,1032.107
2017-03-25T01:27:00.917Z,1032.019
2017-03-25T01:33:09.038Z,1031.860
2017-03-25T01:36:13.374Z,1031.756
2017-03-25T01:45:26.470Z,1031.825
2017-03-25T01:48:30.557Z,1031.869
2017-03-25T01:54:38.354Z,1031.817
2017-03-25T01:57:42.663Z,1031.718
2017-03-25T02:00:46.827Z,1031.664
2017-03-25T02:03:50.738Z,1031.642
2017-03-25T02:06:54.221Z,1031.684
2017-03-25T02:09:59.306Z,1031.650
2017-03-25T02:13:04.571Z,1031.585
2017-03-25T02:16:08.622Z,1031.652
2017-03-25T02:19:12.836Z,1031.639
2017-03-25T02:22:17.287Z,1031.601
2017-03-25T02:25:21.043Z,1031.621
2017-03-25T02:28:25.203Z,1031.636
2017-03-25T02:31:29.447Z,1031.581
2017-03-25T02:34:33.665Z,1031.562
2017-03-25T02:46:54.217Z,1031.331
2017-03-25T02:49:58.342Z,1031.305
2017-03-25T02:53:02.331Z,1031.248
2017-03-25T02:56:06.581Z,1031.201
2017-03-25T02:59:10.893Z,1031.200
2017-03-25T03:02:14.971Z,1031.215
2017-03-25T03:08:23.824Z,1031.183
2017-03-25T03:11:27.793Z,1031.137
2017-03-25T03:17:36.645Z,1031.028
2017-03-25T03:20:40.840Z,1030.994
2017-03-25T03:23:44.876Z,1030.927
2017-03-25T03:26:49.300Z,1030.963
2017-03-25T03:32:58.308Z,1030.990
2017-03-25T03:36:02.290Z,1030.951
2017-03-25T03:39:07.070Z,1030.941
2017-03-25T03:42:12.382Z,1030.896
2017-03-25T03:48:22.046Z,1030.790
2017-03-25T03:51:26.251Z,1030.848
2017-03-25T03:54:30.386Z,1030.830
2017-03-25T03:57:34.523Z,1030.794
2017-03-25T04:00:39.682Z,1030.731
2017-03-25T04:03:43.867Z,1030.711
2017-03-25T04:12:58.732Z,1030.643
2017-03-25T04:16:02.857Z,1030.696
2017-03-25T04:19:07.231Z,1030.690
2017-03-25T04:22:11.305Z,1030.680
2017-03-25T04:25:15.060Z,1030.628
2017-03-25T04:31:25.071Z,1030.498
2017-03-25T04:34:29.003Z,1030.499
2017-03-25T04:40:37.797Z,1030.534
2017-03-25T04:43:43.169Z,1030.549
2017-03-25T04:46:47.401Z,1030.588
2017-03-25T04:49:51.409Z,1030.629
2017-03-25T04:56:00.129Z,1030.606
2017-03-25T04:59:05.256Z,1030.632
2017-03-25T05:05:14.039Z,1030.550
2017-03-25T05:08:18.262Z,1030.633
2017-03-25T05:11:22.036Z,1030.663
2017-03-25T05:14:25.899Z,1030.585
2017-03-25T05:17:30.111Z,1030.562
2017-03-25T05:20:33.771Z,1030.568
2017-03-25T05:23:38.224Z,1030.596
2017-03-25T05:26:41.729Z,1030.581
2017-03-25T05:32:46.740Z,1030.509
2017-03-25T05:35:50.502Z,1030.476
2017-03-25T05:38:54.390Z,1030.521
2017-03-25T05:41:58.299Z,1030.548
2017-03-25T05:45:02.417Z,1030.547
2017-03-25T05:54:16.926Z,1030.557
2017-03-25T05:57:16.047Z,1030.473
2017-03-25T06:00:27.033Z,1030.473
2017-03-25T06:03:30.265Z,1030.507
2017-03-25T06:06:34.376Z,1030.377
2017-03-25T06:09:38.319Z,1030.236
2017-03-25T06:15:47.465Z,1030.204
2017-03-25T06:18:52.656Z,1030.137
2017-03-25T06:31:11.084Z,1030.124
2017-03-25T06:34:14.449Z,1030.121
2017-03-25T06:37:18.988Z,1030.126
2017-03-25T06:40:22.783Z,1030.164
2017-03-25T06:43:27.118Z,1030.134
2017-03-25T06:46:30.836Z,1030.126
2017-03-25T06:52:40.323Z,1030.143
2017-03-25T06:58:50.086Z,1030.118
2017-03-25T07:04:53.200Z,1029.990
2017-03-25T07:07:58.212Z,1030.016
2017-03-25T07:11:03.443Z,1030.103
2017-03-25T07:14:08.495Z,1030.032
2017-03-25T07:23:24.834Z,1030.031
2017-03-25T07:26:35.909Z,1030.140
2017-03-25T07:29:33.711Z,1030.142
2017-03-25T07:32:38.923Z,1030.169
2017-03-25T07:35:42.915Z,1030.101
2017-03-25T07:38:48.166Z,1030.024
2017-03-25T07:41:52.797Z,1029.949
2017-03-25T07:44:58.068Z,1029.993
2017-03-25T07:48:03.310Z,1030.015
2017-03-25T07:51:08.591Z,1029.971
2017-03-25T07:54:13.303Z,1029.869
2017-03-25T07:57:13.639Z,1029.832
2017-03-25T08:00:25.061Z,1029.855
2017-03-25T08:03:30.452Z,1029.829
2017-03-25T08:06:35.570Z,1029.836
2017-03-25T08:09:40.944Z,1029.818
2017-03-25T08:12:46.421Z,1029.836
2017-03-25T08:15:57.138Z,1029.881
2017-03-25T08:19:01.867Z,1029.905
2017-03-25T08:22:06.054Z,1029.932
2017-03-25T08:28:15.969Z,1029.747
2017-03-25T08:31:20.544Z,1029.730
2017-03-25T08:34:25.195Z,1029.762
2017-03-25T08:37:30.351Z,1029.707
2017-03-25T08:40:35.850Z,1029.712
2017-03-25T08:46:45.806Z,1029.668
2017-03-25T08:49:50.152Z,1029.625
2017-03-25T08:52:55.422Z,1029.655
2017-03-25T08:59:06.266Z,1029.761
2017-03-25T09:05:15.678Z,1029.629
2017-03-25T09:08:20.016Z,1029.635
2017-03-25T09:11:24.518Z,1029.531
2017-03-25T09:14:28.532Z,1029.437
2017-03-25T09:17:33.043Z,1029.524
2017-03-25T09:20:37.438Z,1029.505
2017-03-25T09:23:41.950Z,1029.475
2017-03-25T09:26:46.695Z,1029.632
2017-03-25T09:29:51.516Z,1029.575
2017-03-25T09:32:56.075Z,1029.464
2017-03-25T09:36:00.832Z,1029.423
2017-03-25T09:39:05.513Z,1029.495
2017-03-25T09:42:11.037Z,1029.449
2017-03-25T09:45:15.863Z,1029.310
2017-03-25T09:48:21.754Z,1029.438
2017-03-25T09:51:26.544Z,1029.488
2017-03-25T09:54:31.458Z,1029.425
2017-03-25T09:57:29.962Z,1029.457
2017-03-25T10:00:35.285Z,1029.538
2017-03-25T10:03:46.713Z,1029.346
2017-03-25T10:06:51.297Z,1029.397
2017-03-25T10:09:56.102Z,1029.401
2017-03-25T10:13:00.758Z,1029.446
2017-03-25T10:16:05.364Z,1029.433
2017-03-25T10:22:16.238Z,1029.700
2017-03-25T10:25:15.986Z,1029.682
2017-03-25T10:28:27.327Z,1029.676
2017-03-25T10:31:31.947Z,1029.670
2017-03-25T10:37:42.048Z,1029.611
2017-03-25T10:40:40.569Z,1029.441
2017-03-25T10:43:51.824Z,1029.427
2017-03-25T10:49:55.408Z,1029.407
2017-03-25T10:53:06.404Z,1029.419
2017-03-25T10:56:10.736Z,1029.400
2017-03-25T10:59:16.135Z,1029.266
2017-03-25T11:02:21.011Z,1029.069
2017-03-25T11:05:19.584Z,1029.017
2017-03-25T11:08:31.188Z,1028.913
2017-03-25T11:11:35.987Z,1028.853
2017-03-25T11:14:34.777Z,1028.966
2017-03-25T11:17:46.323Z,1028.867
2017-03-25T11:20:51.713Z,1028.855
2017-03-25T11:23:56.162Z,1028.883
2017-03-25T11:27:01.281Z,1028.678
2017-03-25T11:29:59.940Z,1028.641
2017-03-25T11:36:17.442Z,1028.594
2017-03-25T11:39:22.014Z,1028.489
2017-03-25T11:42:26.852Z,1028.442
2017-03-25T11:45:25.594Z,1028.336
2017-03-25T11:48:37.158Z,1028.248
2017-03-25T11:51:36.077Z,1028.344
2017-03-25T11:54:41.285Z,1028.387
2017-03-25T11:57:47.169Z,1028.421
2017-03-25T12:00:58.323Z,1028.419
2017-03-25T12:03:56.408Z,1028.309
2017-03-25T12:07:01.536Z,1028.259
2017-03-25T12:10:12.558Z,1028.310
2017-03-25T12:13:12.334Z,1028.297
2017-03-25T12:16:16.987Z,1028.306
2017-03-25T12:19:22.271Z,1028.150
2017-03-25T12:22:32.987Z,1028.135
2017-03-25T12:31:49.069Z,1028.028
2017-03-25T12:34:47.521Z,1027.898
2017-03-25T12:37:52.182Z,1027.868
2017-03-25T12:40:57.566Z,1027.841
2017-03-25T12:44:02.031Z,1027.783
2017-03-25T12:47:13.502Z,1027.776
2017-03-25T12:50:18.319Z,1027.654
2017-03-25T12:53:24.142Z,1027.599
2017-03-25T12:56:29.527Z,1027.393
2017-03-25T12:59:27.455Z,1027.335
2017-03-25T13:02:32.546Z,1027.280
2017-03-25T13:05:37.586Z,1027.244
2017-03-25T13:08:43.749Z,1027.346
2017-03-25T13:11:49.180Z,1027.430
2017-03-25T13:14:54.410Z,1027.443
2017-03-25T13:17:59.751Z,1027.387
2017-03-25T13:21:05.076Z,1027.303
2017-03-25T13:24:16.068Z,1027.311
2017-03-25T13:27:15.799Z,1027.373
2017-03-25T13:30:26.724Z,1027.418
2017-03-25T13:33:31.566Z,1027.346
2017-03-25T13:36:36.481Z,1027.285
2017-03-25T13:39:41.346Z,1027.221
2017-03-25T13:42:46.049Z,1027.315
2017-03-25T13:45:51.775Z,1027.300
2017-03-25T13:48:56.445Z,1027.222
2017-03-25T13:52:01.613Z,1027.205
2017-03-25T13:55:06.518Z,1027.164
2017-03-25T13:58:05.630Z,1027.186
2017-03-25T14:01:17.100Z,1027.149
2017-03-25T14:04:22.050Z,1027.167
2017-03-25T14:07:26.439Z,1027.111
2017-03-25T14:10:31.180Z,1027.152
2017-03-25T14:13:30.090Z,1027.072
2017-03-25T14:16:41.880Z,1026.913
2017-03-25T14:19:46.857Z,1026.929
2017-03-25T14:22:51.634Z,1027.049
2017-03-25T14:25:50.666Z,1026.986
2017-03-25T14:29:02.490Z,1026.839
2017-03-25T14:32:08.331Z,1026.752
2017-03-25T14:35:13.239Z,1026.717
2017-03-25T14:38:17.992Z,1026.658
2017-03-25T14:41:23.062Z,1026.645
2017-03-25T14:44:21.864Z,1026.721
2017-03-25T14:47:33.435Z,1026.676
2017-03-25T14:50:38.127Z,1026.700
2017-03-25T14:53:42.874Z,1026.720
2017-03-25T14:56:47.625Z,1026.629
2017-03-25T14:59:53.276Z,1026.489
2017-03-25T15:02:57.648Z,1026.453
2017-03-25T15:06:03.642Z,1026.370
2017-03-25T15:09:08.105Z,1026.353
2017-03-25T15:12:13.033Z,1026.398
2017-03-25T15:15:17.587Z,1026.360
2017-03-25T15:18:16.694Z,1026.365
2017-03-25T15:21:28.317Z,1026.302
2017-03-25T15:24:33.034Z,1026.329
2017-03-25T15:27:37.571Z,1026.302
2017-03-25T15:30:42.599Z,1026.234
2017-03-25T15:33:41.103Z,1026.266
2017-03-25T15:36:46.114Z,1026.233
2017-03-25T15:39:51.243Z,1026.167
2017-03-25T15:43:02.868Z,1026.107
2017-03-25T15:46:07.402Z,1026.027
2017-03-25T15:49:06.528Z,1025.968
2017-03-25T15:52:18.107Z,1025.886
2017-03-25T15:55:16.957Z,1025.872
2017-03-25T15:58:22.400Z,1025.840
2017-03-25T16:01:33.991Z,1025.777
2017-03-25T16:04:38.497Z,1025.727
2017-03-25T16:07:43.396Z,1025.686
2017-03-25T16:13:54.084Z,1025.647
2017-03-25T16:16:59.087Z,1025.703
2017-03-25T16:20:03.918Z,1025.682
2017-03-25T16:23:08.707Z,1025.771
2017-03-25T16:29:19.450Z,1025.660
2017-03-25T16:32:24.284Z,1025.601
2017-03-25T16:35:28.640Z,1025.592
2017-03-25T16:38:27.435Z,1025.529
2017-03-25T16:41:38.666Z,1025.532
2017-03-25T16:44:43.384Z,1025.501
2017-03-25T16:50:55.133Z,1025.592
2017-03-25T16:53:59.761Z,1025.580
2017-03-25T16:56:55.728Z,1025.623
2017-03-25T17:00:07.272Z,1025.752
2017-03-25T17:03:12.064Z,1025.797
2017-03-25T17:06:16.093Z,1025.784
2017-03-25T17:09:22.184Z,1025.810
2017-03-25T17:12:26.462Z,1025.821
2017-03-25T17:15:31.181Z,1025.876
2017-03-25T17:18:35.709Z,1025.856
2017-03-25T17:21:35.389Z,1025.915
2017-03-25T17:24:46.363Z,1025.969
2017-03-25T17:27:46.182Z,1025.990
2017-03-25T17:30:57.668Z,1026.052
2017-03-25T17:33:56.285Z,1026.039
2017-03-25T17:37:01.105Z,1025.989
2017-03-25T17:40:12.128Z,1025.940
2017-03-25T17:43:16.639Z,1025.965
2017-03-25T17:46:22.358Z,1025.913
2017-03-25T17:49:28.291Z,1025.857
2017-03-25T17:52:33.018Z,1025.762
2017-03-25T17:55:38.877Z,1025.759
2017-03-25T17:58:37.552Z,1025.744
2017-03-25T18:01:48.878Z,1025.845
2017-03-25T18:04:47.739Z,1025.932
2017-03-25T18:07:58.812Z,1025.951
2017-03-25T18:11:02.839Z,1025.895
2017-03-25T18:14:01.285Z,1025.901
2017-03-25T18:17:04.685Z,1025.884
2017-03-25T18:20:15.883Z,1025.855
2017-03-25T18:23:14.116Z,1025.777
2017-03-25T18:26:19.399Z,1025.655
2017-03-25T18:29:30.837Z,1025.592
2017-03-25T18:32:34.987Z,1025.587
2017-03-25T18:35:40.618Z,1025.574
2017-03-25T18:38:46.296Z,1025.627
2017-03-25T18:41:45.187Z,1025.525
2017-03-25T18:44:49.451Z,1025.447
2017-03-25T18:48:00.925Z,1025.410
2017-03-25T18:51:06.582Z,1025.385
2017-03-25T18:54:10.698Z,1025.441
2017-03-25T18:57:15.345Z,1025.431
2017-03-25T19:00:20.213Z,1025.429
2017-03-25T19:03:24.299Z,1025.313
2017-03-25T19:06:29.217Z,1025.274
2017-03-25T19:09:33.599Z,1025.233
2017-03-25T19:15:44.334Z,1025.375
2017-03-25T19:21:48.315Z,1025.410
2017-03-25T19:24:59.410Z,1025.332
2017-03-25T19:28:04.454Z,1025.149
2017-03-25T19:31:03.012Z,1025.163
2017-03-25T19:34:14.201Z,1025.250
2017-03-25T19:37:18.431Z,1025.313
2017-03-25T19:40:24.063Z,1025.377
2017-03-25T19:43:28.257Z,1025.309
2017-03-25T19:46:26.486Z,1025.308
2017-03-25T19:49:37.825Z,1025.379
2017-03-25T19:52:42.649Z,1025.455
2017-03-25T19:55:48.140Z,1025.466
2017-03-25T19:58:53.464Z,1025.429
2017-03-25T20:01:58.320Z,1025.513
2017-03-25T20:08:02.688Z,1025.714
2017-03-25T20:14:18.418Z,1025.607
2017-03-25T20:17:17.973Z,1025.642
2017-03-25T20:20:28.954Z,1025.625
2017-03-25T20:23:33.559Z,1025.572
2017-03-25T20:26:31.768Z,1025.509
2017-03-25T20:29:43.157Z,1025.502
2017-03-25T20:32:47.767Z,1025.482
2017-03-25T20:35:52.248Z,1025.554
2017-03-25T20:38:50.928Z,1025.548
2017-03-25T20:42:02.217Z,1025.548
2017-03-25T20:45:00.771Z,1025.565
2017-03-25T20:51:17.045Z,1025.647
2017-03-25T20:54:21.689Z,1025.730
2017-03-25T20:57:26.261Z,1025.797
2017-03-25T21:00:30.771Z,1025.863
2017-03-25T21:03:35.599Z,1025.871
2017-03-25T21:06:40.025Z,1025.875
2017-03-25T21:09:39.638Z,1025.899
2017-03-25T21:12:51.402Z,1025.970
2017-03-25T21:15:55.870Z,1025.949
2017-03-25T21:18:54.187Z,1025.962
2017-03-25T21:22:05.448Z,1025.953
2017-03-25T21:25:09.972Z,1025.920
2017-03-25T21:28:14.790Z,1025.874
2017-03-25T21:31:13.059Z,1025.907
2017-03-25T21:34:23.629Z,1025.910
2017-03-25T21:37:29.048Z,1025.815
2017-03-25T21:40:27.858Z,1025.767
2017-03-25T21:43:39.062Z,1025.728
2017-03-25T21:49:47.777Z,1025.688
2017-03-25T21:52:53.376Z,1025.750
2017-03-25T21:55:57.984Z,1025.784
2017-03-25T21:59:03.240Z,1025.818
2017-03-25T22:02:08.424Z,1025.868
2017-03-25T22:05:13.099Z,1025.904
2017-03-25T22:08:11.832Z,1025.913
2017-03-25T22:11:16.426Z,1026.006
2017-03-25T22:14:27.593Z,1025.985
2017-03-25T22:20:37.946Z,1025.992
2017-03-25T22:23:36.491Z,1026.044
2017-03-25T22:26:47.595Z,1026.046
2017-03-25T22:29:52.286Z,1026.078
2017-03-25T22:32:57.773Z,1026.124
2017-03-25T22:36:02.317Z,1026.139
2017-03-25T22:45:18.863Z,1026.175
2017-03-25T22:48:23.910Z,1026.124
2017-03-25T22:51:23.040Z,1026.146
2017-03-25T22:54:28.449Z,1026.142
2017-03-25T22:57:39.511Z,1026.141
2017-03-25T23:00:44.051Z,1026.224
2017-03-25T23:03:48.252Z,1026.241
2017-03-25T23:06:46.727Z,1026.202
2017-03-25T23:09:57.768Z,1026.197
2017-03-25T23:16:08.716Z,1026.260
2017-03-25T23:19:12.916Z,1026.228
2017-03-25T23:25:22.798Z,1026.203
2017-03-25T23:28:21.133Z,1026.219
2017-03-25T23:31:32.128Z,1026.222
2017-03-25T23:34:36.446Z,1026.256
2017-03-25T23:37:41.027Z,1026.297
2017-03-25T23:40:45.420Z,1026.297
2017-03-25T23:43:50.796Z,1026.239
2017-03-25T23:46:55.352Z,1026.230
2017-03-25T23:50:00.019Z,1026.235
2017-03-25T23:53:04.547Z,1026.188
2017-03-25T23:56:02.723Z,1026.169
2017-03-25T23:59:14.397Z,1026.177
